createdAt,value
2022-11-29T00:01:53.096Z,6.81
2022-11-29T00:04:23.158Z,6.78
2022-11-29T00:06:51.609Z,6.76
2022-11-29T00:09:20.166Z,6.80
2022-11-29T00:12:05.600Z,6.81
2022-11-29T00:14:34.155Z,6.78
2022-11-29T00:17:04.603Z,6.66
2022-11-29T00:19:35.245Z,6.73
2022-11-29T00:22:04.336Z,6.75
2022-11-29T00:24:33.595Z,6.78
2022-11-29T00:27:02.885Z,6.80
2022-11-29T00:29:31.972Z,6.80
2022-11-29T00:32:00.505Z,6.76
2022-11-29T00:34:29.314Z,6.67
2022-11-29T00:36:59.603Z,6.80
2022-11-29T00:39:28.454Z,6.76
2022-11-29T00:41:57.497Z,6.70
2022-11-29T00:44:26.993Z,6.81
2022-11-29T00:46:55.700Z,6.80
2022-11-29T00:49:26.236Z,6.73
2022-11-29T00:51:55.052Z,6.81
2022-11-29T00:54:28.618Z,6.79
2022-11-29T00:56:58.162Z,6.96
2022-11-29T00:59:26.964Z,6.80
2022-11-29T01:01:56.998Z,6.80
2022-11-29T01:04:25.214Z,6.81
2022-11-29T01:06:54.723Z,6.88
2022-11-29T01:09:25.034Z,6.83
2022-11-29T01:11:54.618Z,6.85
2022-11-29T01:14:25.447Z,6.89
2022-11-29T01:16:54.267Z,6.85
2022-11-29T01:19:25.072Z,6.84
2022-11-29T01:21:53.455Z,6.88
2022-11-29T01:24:24.634Z,6.73
2022-11-29T01:26:55.729Z,6.78
2022-11-29T01:29:24.383Z,6.83
2022-11-29T01:31:53.450Z,6.81
2022-11-29T01:34:21.785Z,6.79
2022-11-29T01:36:50.501Z,6.80
2022-11-29T01:39:18.889Z,6.80
2022-11-29T01:41:49.944Z,6.81
2022-11-29T01:44:53.999Z,6.78
2022-11-29T01:47:24.208Z,6.83
2022-11-29T01:49:54.467Z,6.83
2022-11-29T01:52:27.488Z,6.91
2022-11-29T01:55:01.000Z,6.75
2022-11-29T01:57:33.036Z,6.87
2022-11-29T02:00:08.877Z,6.84
2022-11-29T02:02:43.581Z,6.83
2022-11-29T02:05:14.902Z,6.80
2022-11-29T02:07:47.495Z,6.93
2022-11-29T02:10:17.081Z,6.84
2022-11-29T02:12:55.774Z,6.82
2022-11-29T02:15:35.017Z,6.85
2022-11-29T02:18:09.501Z,6.91
2022-11-29T02:21:10.302Z,6.83
2022-11-29T02:24:08.276Z,6.81
2022-11-29T02:26:58.687Z,6.83
2022-11-29T02:29:48.229Z,6.84
2022-11-29T02:33:04.625Z,6.87
2022-11-29T02:36:08.371Z,6.84
2022-11-29T02:39:11.546Z,6.84
2022-11-29T02:41:53.334Z,6.89
2022-11-29T02:44:41.743Z,6.87
2022-11-29T02:47:27.581Z,6.82
2022-11-29T02:50:21.325Z,6.87
2022-11-29T02:53:01.761Z,6.84
2022-11-29T02:55:37.707Z,6.82
2022-11-29T02:58:15.750Z,6.82
2022-11-29T03:00:56.324Z,6.90
2022-11-29T03:03:29.138Z,6.91
2022-11-29T03:06:09.340Z,6.92
2022-11-29T03:08:51.138Z,6.91
2022-11-29T03:11:29.258Z,6.97
2022-11-29T03:14:10.453Z,7.02
2022-11-29T03:16:47.594Z,7.00
2022-11-29T03:19:35.501Z,6.95
2022-11-29T03:22:12.451Z,7.01
2022-11-29T03:24:56.444Z,6.92
2022-11-29T03:27:33.813Z,6.97
2022-11-29T03:30:07.362Z,6.93
2022-11-29T03:32:44.343Z,6.85
2022-11-29T03:35:18.528Z,6.84
2022-11-29T03:37:58.224Z,6.87
2022-11-29T03:40:35.139Z,6.98
2022-11-29T03:43:10.635Z,6.93
2022-11-29T03:45:46.537Z,6.88
2022-11-29T03:48:20.291Z,6.83
2022-11-29T03:50:54.879Z,6.89
2022-11-29T03:53:29.942Z,6.89
2022-11-29T03:56:02.262Z,6.75
2022-11-29T03:58:43.350Z,6.94
2022-11-29T04:01:35.273Z,6.89
2022-11-29T04:04:27.724Z,6.96
2022-11-29T04:07:09.151Z,6.94
2022-11-29T04:09:56.685Z,6.88
2022-11-29T04:13:02.448Z,6.87
2022-11-29T04:16:15.872Z,6.96
2022-11-29T04:19:15.888Z,6.99
2022-11-29T04:22:16.824Z,6.83
2022-11-29T04:25:16.444Z,6.84
2022-11-29T04:28:12.291Z,6.90
2022-11-29T04:30:54.418Z,6.83
2022-11-29T04:33:58.270Z,6.94
2022-11-29T04:36:43.782Z,6.98
2022-11-29T04:39:48.342Z,6.93
2022-11-29T04:42:50.597Z,6.98
2022-11-29T04:45:57.311Z,6.98
2022-11-29T04:48:44.360Z,7.01
2022-11-29T04:51:23.678Z,6.96
2022-11-29T04:53:59.979Z,7.02
2022-11-29T04:56:38.114Z,6.99
2022-11-29T04:59:19.743Z,7.05
2022-11-29T05:02:04.213Z,6.96
2022-11-29T05:04:42.716Z,7.01
2022-11-29T05:07:21.251Z,6.92
2022-11-29T05:10:04.578Z,7.05
2022-11-29T05:12:40.281Z,6.97
2022-11-29T05:15:34.289Z,6.99
2022-11-29T05:18:17.592Z,6.98
2022-11-29T05:20:55.344Z,7.04
2022-11-29T05:23:42.144Z,6.85
2022-11-29T05:26:16.507Z,6.89
2022-11-29T05:28:56.637Z,6.90
2022-11-29T05:31:54.473Z,7.06
2022-11-29T05:34:35.241Z,7.04
2022-11-29T05:37:20.536Z,7.03
2022-11-29T05:40:17.425Z,6.97
2022-11-29T05:43:13.794Z,6.95
2022-11-29T05:45:49.223Z,6.96
2022-11-29T05:48:26.575Z,6.91
2022-11-29T05:51:07.773Z,6.96
2022-11-29T05:53:50.228Z,6.92
2022-11-29T05:56:30.488Z,6.95
2022-11-29T05:59:02.455Z,7.00
2022-11-29T06:01:37.614Z,6.98
2022-11-29T06:04:14.989Z,6.98
2022-11-29T06:06:49.200Z,7.27
2022-11-29T06:09:25.422Z,7.06
2022-11-29T06:11:59.596Z,6.98
2022-11-29T06:14:50.853Z,7.02
2022-11-29T06:17:41.050Z,7.08
2022-11-29T06:20:24.963Z,6.92
2022-11-29T06:23:07.023Z,6.95
2022-11-29T06:25:53.781Z,7.01
2022-11-29T06:28:34.027Z,6.96
2022-11-29T06:31:13.624Z,6.98
2022-11-29T06:33:49.728Z,7.03
2022-11-29T06:36:22.619Z,7.05
2022-11-29T06:38:53.492Z,7.03
2022-11-29T06:41:25.174Z,6.79
2022-11-29T06:43:54.200Z,6.62
2022-11-29T06:46:35.341Z,6.63
2022-11-29T06:49:10.954Z,6.50
2022-11-29T06:51:50.991Z,6.54
2022-11-29T06:54:31.448Z,6.68
2022-11-29T06:57:07.149Z,6.78
2022-11-29T06:59:50.771Z,6.87
2022-11-29T07:02:47.001Z,6.91
2022-11-29T07:05:22.877Z,6.91
2022-11-29T07:07:53.354Z,6.93
2022-11-29T07:10:24.129Z,6.98
2022-11-29T07:13:00.584Z,6.93
2022-11-29T07:15:30.346Z,7.00
2022-11-29T07:18:21.437Z,7.01
2022-11-29T07:21:00.889Z,6.99
2022-11-29T07:23:36.568Z,7.03
2022-11-29T07:26:21.877Z,7.13
2022-11-29T07:29:05.070Z,7.11
2022-11-29T07:31:46.942Z,7.06
2022-11-29T07:34:24.001Z,7.06
2022-11-29T07:37:01.888Z,7.25
2022-11-29T07:39:42.911Z,7.16
2022-11-29T07:42:20.491Z,7.13
2022-11-29T07:45:04.470Z,7.13
2022-11-29T07:47:36.102Z,7.21
2022-11-29T07:50:05.369Z,7.24
2022-11-29T07:52:34.678Z,7.25
2022-11-29T07:55:05.394Z,7.20
2022-11-29T07:57:33.512Z,7.21
2022-11-29T08:00:06.092Z,7.26
2022-11-29T08:02:34.261Z,7.26
2022-11-29T08:05:02.560Z,7.21
2022-11-29T08:07:31.039Z,7.16
2022-11-29T08:09:59.783Z,7.14
2022-11-29T08:12:30.928Z,7.24
2022-11-29T08:14:59.366Z,7.27
2022-11-29T08:17:31.481Z,7.31
2022-11-29T08:20:03.870Z,7.22
2022-11-29T08:22:32.742Z,7.24
2022-11-29T08:25:01.575Z,7.26
2022-11-29T08:27:30.166Z,7.28
2022-11-29T08:29:58.327Z,7.28
2022-11-29T08:32:27.276Z,7.20
2022-11-29T08:34:57.465Z,7.34
2022-11-29T08:37:26.200Z,7.38
2022-11-29T08:39:58.365Z,7.40
2022-11-29T08:42:26.751Z,7.39
2022-11-29T08:44:55.653Z,7.38
2022-11-29T08:47:40.331Z,7.43
2022-11-29T08:50:14.832Z,7.51
2022-11-29T08:53:03.131Z,7.51
2022-11-29T08:55:36.271Z,7.51
2022-11-29T08:58:06.898Z,7.41
2022-11-29T09:00:36.651Z,7.49
2022-11-29T09:03:23.313Z,7.45
2022-11-29T09:05:53.892Z,7.25
2022-11-29T09:08:22.835Z,7.35
2022-11-29T09:10:51.948Z,7.35
2022-11-29T09:13:20.115Z,7.30
2022-11-29T09:15:48.653Z,7.12
2022-11-29T09:18:17.264Z,7.20
2022-11-29T09:20:46.784Z,7.24
2022-11-29T09:23:17.383Z,7.43
2022-11-29T09:25:50.482Z,7.25
2022-11-29T09:28:19.003Z,7.14
2022-11-29T09:30:48.578Z,7.07
2022-11-29T09:33:17.061Z,7.16
2022-11-29T09:35:46.071Z,7.12
2022-11-29T09:38:16.909Z,7.09
2022-11-29T09:40:50.987Z,7.09
2022-11-29T09:43:31.545Z,7.10
2022-11-29T09:46:07.741Z,7.23
2022-11-29T09:49:08.718Z,7.31
2022-11-29T09:51:44.870Z,7.58
2022-11-29T09:54:26.687Z,7.60
2022-11-29T09:56:57.095Z,7.74
2022-11-29T09:59:36.487Z,7.62
2022-11-29T10:02:08.935Z,7.78
2022-11-29T10:04:44.219Z,7.65
2022-11-29T10:07:19.662Z,7.44
2022-11-29T10:09:56.307Z,7.38
2022-11-29T10:12:36.368Z,7.74
2022-11-29T10:15:10.955Z,7.78
2022-11-29T10:17:46.391Z,7.64
2022-11-29T10:20:20.633Z,7.64
2022-11-29T10:22:55.614Z,7.81
2022-11-29T10:25:30.980Z,7.93
2022-11-29T10:27:59.727Z,7.62
2022-11-29T10:30:28.665Z,7.88
2022-11-29T10:33:00.320Z,8.02
2022-11-29T10:35:30.156Z,8.10
2022-11-29T10:40:59.240Z,8.14
2022-11-29T10:43:29.426Z,8.11
2022-11-29T10:45:59.471Z,8.14
2022-11-29T10:48:33.420Z,8.16
2022-11-29T10:51:03.597Z,8.20
2022-11-29T10:53:39.220Z,8.11
2022-11-29T10:56:16.917Z,8.07
2022-11-29T10:58:57.937Z,7.93
2022-11-29T11:01:31.673Z,8.03
2022-11-29T11:04:04.430Z,8.01
2022-11-29T11:06:46.761Z,8.19
2022-11-29T11:09:22.125Z,8.33
2022-11-29T11:11:57.305Z,8.26
2022-11-29T11:14:29.919Z,8.28
2022-11-29T11:17:15.689Z,8.33
2022-11-29T11:19:47.526Z,8.39
2022-11-29T11:22:23.387Z,8.39
2022-11-29T11:25:00.159Z,8.45
2022-11-29T11:27:37.298Z,8.45
2022-11-29T11:30:08.317Z,8.40
2022-11-29T11:32:38.479Z,8.41
2022-11-29T11:35:24.168Z,8.47
2022-11-29T11:37:58.593Z,8.51
2022-11-29T11:40:29.862Z,8.62
2022-11-29T11:43:03.088Z,8.60
2022-11-29T11:45:38.893Z,8.49
2022-11-29T11:48:15.197Z,8.51
2022-11-29T11:50:51.834Z,8.52
2022-11-29T11:53:24.945Z,8.58
2022-11-29T11:56:03.112Z,8.56
2022-11-29T11:58:36.256Z,8.58
2022-11-29T12:01:18.159Z,8.61
2022-11-29T12:03:52.917Z,8.64
2022-11-29T12:06:37.246Z,8.68
2022-11-29T12:09:13.444Z,8.80
2022-11-29T12:11:54.009Z,8.87
2022-11-29T12:14:31.951Z,8.93
2022-11-29T12:17:07.156Z,8.94
2022-11-29T12:19:44.805Z,8.92
2022-11-29T12:22:19.789Z,8.72
2022-11-29T12:24:59.001Z,8.62
2022-11-29T12:27:27.732Z,8.76
2022-11-29T12:29:59.282Z,8.84
2022-11-29T12:32:45.364Z,8.89
2022-11-29T12:35:35.620Z,8.97
2022-11-29T12:38:13.616Z,8.80
2022-11-29T12:40:48.963Z,8.88
2022-11-29T12:43:32.292Z,8.98
2022-11-29T12:46:14.392Z,9.07
2022-11-29T12:48:52.736Z,9.25
2022-11-29T12:51:29.266Z,9.24
2022-11-29T12:54:32.271Z,9.24
2022-11-29T12:57:09.210Z,9.28
2022-11-29T12:59:52.742Z,9.45
2022-11-29T13:02:38.590Z,9.49
2022-11-29T13:05:16.520Z,9.32
2022-11-29T13:07:58.972Z,9.65
2022-11-29T13:10:40.875Z,9.73
2022-11-29T13:13:23.787Z,9.31
2022-11-29T13:15:57.237Z,9.52
2022-11-29T13:18:37.115Z,9.66
2022-11-29T13:21:13.588Z,9.73
2022-11-29T13:26:40.355Z,9.77
2022-11-29T13:29:14.185Z,9.86
2022-11-29T13:31:45.147Z,9.91
2022-11-29T13:34:18.347Z,9.80
2022-11-29T13:36:58.542Z,9.66
2022-11-29T13:39:41.303Z,9.68
2022-11-29T13:42:18.072Z,9.43
2022-11-29T13:45:00.380Z,9.45
2022-11-29T13:47:29.059Z,9.36
2022-11-29T13:50:02.904Z,9.49
2022-11-29T13:52:42.074Z,9.56
2022-11-29T13:55:29.378Z,9.84
2022-11-29T13:58:16.716Z,9.74
2022-11-29T14:00:52.693Z,9.65
2022-11-29T14:03:30.768Z,9.43
2022-11-29T14:06:13.612Z,9.51
2022-11-29T14:09:17.093Z,9.27
2022-11-29T14:11:51.967Z,9.28
2022-11-29T14:14:29.239Z,9.18
2022-11-29T14:17:00.535Z,9.12
2022-11-29T14:19:33.828Z,9.26
2022-11-29T14:22:25.183Z,9.32
2022-11-29T14:25:16.514Z,9.41
2022-11-29T14:27:58.357Z,9.46
2022-11-29T14:30:41.920Z,9.48
2022-11-29T14:33:23.439Z,9.37
2022-11-29T14:36:04.460Z,9.40
2022-11-29T14:38:43.432Z,9.39
2022-11-29T14:41:22.308Z,9.33
2022-11-29T14:43:50.689Z,9.44
2022-11-29T14:46:29.650Z,9.43
2022-11-29T14:49:03.129Z,9.50
2022-11-29T14:51:33.890Z,9.47
2022-11-29T14:54:09.499Z,9.46
2022-11-29T14:56:42.767Z,9.41
2022-11-29T14:59:47.587Z,9.33
2022-11-29T15:02:32.667Z,9.33
2022-11-29T15:05:16.459Z,9.20
2022-11-29T15:07:55.444Z,9.16
2022-11-29T15:10:30.529Z,8.99
2022-11-29T15:13:01.468Z,8.95
2022-11-29T15:16:11.177Z,9.03
2022-11-29T15:19:07.842Z,9.08
2022-11-29T15:21:46.869Z,9.01
2022-11-29T15:24:17.973Z,8.98
2022-11-29T15:27:03.508Z,9.01
2022-11-29T15:29:33.184Z,8.93
2022-11-29T15:32:05.085Z,8.95
2022-11-29T15:34:38.430Z,8.94
2022-11-29T15:37:07.772Z,8.87
2022-11-29T15:39:39.567Z,8.84
2022-11-29T15:42:13.946Z,8.76
2022-11-29T15:44:47.519Z,8.74
2022-11-29T15:47:17.840Z,8.70
2022-11-29T15:49:48.725Z,8.75
2022-11-29T15:52:25.613Z,8.62
2022-11-29T15:54:58.351Z,8.59
2022-11-29T15:57:32.395Z,8.62
2022-11-29T16:00:04.247Z,8.64
2022-11-29T16:02:35.528Z,8.65
2022-11-29T16:05:11.418Z,8.57
2022-11-29T16:07:41.151Z,8.52
2022-11-29T16:10:15.375Z,8.53
2022-11-29T16:13:04.877Z,8.44
2022-11-29T16:15:35.066Z,8.47
2022-11-29T16:18:08.203Z,8.46
2022-11-29T16:20:36.829Z,8.31
2022-11-29T16:23:15.710Z,8.42
2022-11-29T16:26:00.385Z,8.40
2022-11-29T16:28:36.262Z,8.41
2022-11-29T16:31:08.334Z,8.40
2022-11-29T16:33:39.676Z,8.40
2022-11-29T16:36:16.936Z,8.40
2022-11-29T16:38:51.188Z,8.44
2022-11-29T16:41:32.020Z,8.42
2022-11-29T16:44:04.402Z,8.37
2022-11-29T16:46:36.598Z,8.36
2022-11-29T16:49:35.779Z,8.41
2022-11-29T16:52:23.553Z,8.36
2022-11-29T16:54:53.982Z,8.38
2022-11-29T16:57:23.153Z,8.39
2022-11-29T16:59:52.835Z,8.38
2022-11-29T17:02:21.516Z,8.40
2022-11-29T17:04:49.750Z,8.33
2022-11-29T17:07:27.412Z,8.38
2022-11-29T17:09:58.022Z,8.43
2022-11-29T17:12:28.811Z,8.45
2022-11-29T17:14:58.891Z,8.50
2022-11-29T17:17:27.767Z,8.57
2022-11-29T17:19:56.266Z,8.45
2022-11-29T17:22:24.760Z,8.47
2022-11-29T17:24:55.012Z,8.53
2022-11-29T17:27:26.061Z,8.40
2022-11-29T17:29:55.999Z,8.47
2022-11-29T17:32:26.992Z,8.43
2022-11-29T17:34:55.706Z,8.37
2022-11-29T17:37:24.309Z,8.32
2022-11-29T17:39:52.836Z,8.27
2022-11-29T17:42:21.368Z,8.29
2022-11-29T17:44:49.696Z,8.33
2022-11-29T17:47:19.583Z,8.32
2022-11-29T17:49:49.567Z,8.36
2022-11-29T17:52:18.302Z,8.28
2022-11-29T17:54:49.924Z,8.37
2022-11-29T17:57:18.828Z,8.33
2022-11-29T17:59:47.344Z,8.29
2022-11-29T18:02:15.815Z,8.23
2022-11-29T18:04:44.859Z,8.25
2022-11-29T18:07:19.000Z,8.25
2022-11-29T18:09:49.320Z,8.21
2022-11-29T18:12:20.974Z,8.22
2022-11-29T18:14:51.700Z,8.23
2022-11-29T18:17:20.579Z,8.24
2022-11-29T18:19:49.087Z,8.22
2022-11-29T18:22:20.224Z,8.13
2022-11-29T18:24:50.568Z,7.89
2022-11-29T18:27:20.164Z,7.85
2022-11-29T18:29:50.159Z,7.94
2022-11-29T18:32:19.069Z,7.99
2022-11-29T18:34:48.376Z,8.03
2022-11-29T18:37:32.839Z,8.00
2022-11-29T18:40:08.635Z,7.98
2022-11-29T18:42:38.968Z,8.02
2022-11-29T18:45:08.851Z,8.06
2022-11-29T18:47:37.389Z,8.09
2022-11-29T18:50:06.633Z,8.07
2022-11-29T18:52:40.485Z,8.09
2022-11-29T18:55:11.636Z,8.04
2022-11-29T18:57:40.102Z,8.06
2022-11-29T19:00:10.774Z,8.04
2022-11-29T19:02:39.853Z,8.04
2022-11-29T19:05:09.635Z,8.06
2022-11-29T19:07:41.374Z,8.04
2022-11-29T19:10:12.519Z,8.10
2022-11-29T19:12:40.923Z,8.07
2022-11-29T19:15:11.428Z,7.88
2022-11-29T19:17:43.154Z,7.75
2022-11-29T19:20:14.948Z,7.85
2022-11-29T19:22:44.180Z,7.87
2022-11-29T19:25:14.280Z,7.90
2022-11-29T19:27:43.869Z,7.94
2022-11-29T19:30:17.790Z,8.00
2022-11-29T19:32:46.486Z,8.01
2022-11-29T19:35:16.363Z,8.01
2022-11-29T19:37:44.975Z,7.94
2022-11-29T19:40:15.951Z,7.94
2022-11-29T19:42:45.811Z,7.92
2022-11-29T19:45:17.540Z,7.94
2022-11-29T19:47:46.513Z,8.00
2022-11-29T19:50:15.302Z,7.99
2022-11-29T19:52:43.748Z,7.97
2022-11-29T19:55:16.854Z,7.97
2022-11-29T19:57:48.733Z,7.97
2022-11-29T20:00:18.844Z,7.88
2022-11-29T20:02:47.513Z,7.78
2022-11-29T20:05:16.116Z,7.89
2022-11-29T20:07:47.549Z,7.97
2022-11-29T20:10:20.663Z,7.93
2022-11-29T20:12:50.836Z,7.95
2022-11-29T20:15:22.087Z,7.97
2022-11-29T20:17:52.776Z,7.87
2022-11-29T20:20:23.195Z,7.91
2022-11-29T20:22:54.144Z,7.98
2022-11-29T20:25:22.923Z,7.97
2022-11-29T20:27:53.023Z,7.95
2022-11-29T20:30:21.549Z,7.88
2022-11-29T20:32:50.535Z,7.83
2022-11-29T20:35:19.527Z,7.72
2022-11-29T20:38:07.603Z,7.81
2022-11-29T20:41:02.335Z,7.81
2022-11-29T20:43:40.042Z,7.75
2022-11-29T20:46:09.766Z,7.73
2022-11-29T20:48:38.569Z,7.64
2022-11-29T20:51:08.516Z,7.68
2022-11-29T20:53:40.044Z,7.63
2022-11-29T20:56:10.005Z,7.62
2022-11-29T20:58:40.911Z,7.69
2022-11-29T21:01:09.510Z,7.63
2022-11-29T21:03:38.911Z,7.66
2022-11-29T21:06:10.980Z,7.71
2022-11-29T21:08:39.387Z,7.70
2022-11-29T21:11:10.130Z,7.61
2022-11-29T21:13:47.845Z,7.63
2022-11-29T21:16:16.944Z,7.58
2022-11-29T21:18:46.268Z,7.59
2022-11-29T21:21:23.667Z,7.56
2022-11-29T21:24:00.430Z,7.56
2022-11-29T21:26:37.156Z,7.54
2022-11-29T21:29:17.170Z,7.54
2022-11-29T21:31:48.487Z,7.62
2022-11-29T21:34:16.789Z,7.54
2022-11-29T21:36:48.243Z,7.55
2022-11-29T21:39:17.623Z,7.59
2022-11-29T21:41:46.815Z,7.58
2022-11-29T21:44:18.935Z,7.57
2022-11-29T21:46:52.548Z,7.62
2022-11-29T21:49:22.412Z,7.70
2022-11-29T21:51:52.041Z,7.70
2022-11-29T21:54:20.899Z,7.63
2022-11-29T21:56:52.495Z,7.67
2022-11-29T21:59:24.828Z,7.70
2022-11-29T22:01:55.676Z,7.69
2022-11-29T22:04:25.303Z,7.74
2022-11-29T22:06:56.409Z,7.75
2022-11-29T22:09:27.040Z,7.70
2022-11-29T22:11:55.538Z,7.71
2022-11-29T22:14:25.388Z,7.77
2022-11-29T22:16:58.199Z,7.75
2022-11-29T22:19:29.682Z,7.76
2022-11-29T22:21:59.359Z,7.73
2022-11-29T22:24:31.059Z,7.78
2022-11-29T22:26:59.524Z,7.73
2022-11-29T22:29:30.196Z,7.66
2022-11-29T22:31:59.592Z,7.64
2022-11-29T22:34:28.552Z,7.68
2022-11-29T22:36:57.330Z,7.72
2022-11-29T22:39:26.304Z,7.69
2022-11-29T22:41:55.462Z,7.74
2022-11-29T22:44:24.228Z,7.80
2022-11-29T22:46:56.189Z,7.79
2022-11-29T22:49:25.073Z,7.74
2022-11-29T22:51:53.643Z,7.71
2022-11-29T22:54:22.153Z,7.72
2022-11-29T22:56:50.460Z,7.73
2022-11-29T22:59:18.902Z,7.78
2022-11-29T23:01:47.498Z,7.78
2022-11-29T23:04:17.984Z,7.78
2022-11-29T23:06:47.309Z,7.70
2022-11-29T23:09:19.347Z,7.73
2022-11-29T23:11:52.115Z,7.72
2022-11-29T23:14:22.191Z,7.79
2022-11-29T23:16:51.141Z,7.82
2022-11-29T23:19:21.623Z,7.78
2022-11-29T23:21:52.689Z,7.82
2022-11-29T23:24:21.479Z,7.79
2022-11-29T23:26:49.917Z,7.68
2022-11-29T23:29:20.974Z,7.72
2022-11-29T23:31:50.079Z,7.77
2022-11-29T23:34:19.246Z,7.78
2022-11-29T23:36:52.905Z,7.67
2022-11-29T23:39:22.907Z,7.67
2022-11-29T23:41:52.966Z,7.68
2022-11-29T23:44:22.257Z,7.64
2022-11-29T23:46:50.721Z,7.68
2022-11-29T23:49:19.762Z,7.64
2022-11-29T23:51:50.297Z,7.66
2022-11-29T23:54:19.042Z,7.63
2022-11-29T23:56:50.538Z,7.61
2022-11-29T23:59:20.283Z,7.61
